sensor_id;sensor_type;location;lat;lon;timestamp;pressure;altitude;pressure_sealevel;temperature;humidity
4576;BME280;2300;51.874;8.430;2023-04-02T00:01:26;100170.38;;;5.50;98.21
4576;BME280;2300;51.874;8.430;2023-04-02T00:04:16;100170.84;;;5.27;97.14
4576;BME280;2300;51.874;8.430;2023-04-02T00:06:47;100176.28;;;5.14;98.38
4576;BME280;2300;51.874;8.430;2023-04-02T00:09:29;100179.66;;;5.22;99.05
4576;BME280;2300;51.874;8.430;2023-04-02T00:11:57;100183.84;;;5.12;98.62
4576;BME280;2300;51.874;8.430;2023-04-02T00:14:28;100201.41;;;5.09;98.80
4576;BME280;2300;51.874;8.430;2023-04-02T00:16:56;100188.84;;;5.15;99.62
4576;BME280;2300;51.874;8.430;2023-04-02T00:19:29;100190.53;;;5.09;98.86
4576;BME280;2300;51.874;8.430;2023-04-02T00:21:58;100216.09;;;5.21;99.15
4576;BME280;2300;51.874;8.430;2023-04-02T00:24:26;100205.41;;;5.07;99.17
4576;BME280;2300;51.874;8.430;2023-04-02T00:26:53;100213.56;;;5.07;98.53
4576;BME280;2300;51.874;8.430;2023-04-02T00:29:20;100225.47;;;4.99;98.91
4576;BME280;2300;51.874;8.430;2023-04-02T00:31:48;100220.63;;;4.75;99.52
4576;BME280;2300;51.874;8.430;2023-04-02T00:34:19;100234.03;;;4.76;99.56
4576;BME280;2300;51.874;8.430;2023-04-02T00:36:47;100231.47;;;4.62;99.39
4576;BME280;2300;51.874;8.430;2023-04-02T00:39:18;100244.91;;;4.76;99.55
4576;BME280;2300;51.874;8.430;2023-04-02T00:41:46;100247.19;;;4.73;99.21
4576;BME280;2300;51.874;8.430;2023-04-02T00:44:15;100243.00;;;4.70;99.55
4576;BME280;2300;51.874;8.430;2023-04-02T00:46:47;100249.28;;;4.77;99.61
4576;BME280;2300;51.874;8.430;2023-04-02T00:49:21;100250.78;;;4.80;100.00
4576;BME280;2300;51.874;8.430;2023-04-02T00:51:51;100253.28;;;4.88;100.00
4576;BME280;2300;51.874;8.430;2023-04-02T00:54:23;100262.91;;;4.84;100.00
4576;BME280;2300;51.874;8.430;2023-04-02T00:56:54;100267.53;;;4.90;100.00
4576;BME280;2300;51.874;8.430;2023-04-02T00:59:26;100271.69;;;4.79;100.00
4576;BME280;2300;51.874;8.430;2023-04-02T01:01:58;100273.75;;;4.64;99.74
4576;BME280;2300;51.874;8.430;2023-04-02T01:04:30;100278.38;;;4.70;100.00
4576;BME280;2300;51.874;8.430;2023-04-02T01:07:03;100284.88;;;4.76;100.00
4576;BME280;2300;51.874;8.430;2023-04-02T01:10:02;100289.00;;;4.59;99.77
4576;BME280;2300;51.874;8.430;2023-04-02T01:12:49;100290.03;;;4.58;99.89
4576;BME280;2300;51.874;8.430;2023-04-02T01:15:24;100284.13;;;4.47;100.00
4576;BME280;2300;51.874;8.430;2023-04-02T01:18:06;100304.19;;;4.46;100.00
4576;BME280;2300;51.874;8.430;2023-04-02T01:20:55;100309.72;;;4.60;99.85
4576;BME280;2300;51.874;8.430;2023-04-02T01:23:29;100320.13;;;4.50;100.00
4576;BME280;2300;51.874;8.430;2023-04-02T01:26:04;100322.56;;;4.38;99.85
4576;BME280;2300;51.874;8.430;2023-04-02T01:28:46;100327.44;;;4.49;100.00
4576;BME280;2300;51.874;8.430;2023-04-02T01:31:16;100341.47;;;4.53;99.75
4576;BME280;2300;51.874;8.430;2023-04-02T01:33:43;100347.72;;;4.46;99.43
4576;BME280;2300;51.874;8.430;2023-04-02T01:36:14;100347.19;;;4.36;99.16
4576;BME280;2300;51.874;8.430;2023-04-02T01:38:47;100343.09;;;4.40;99.51
4576;BME280;2300;51.874;8.430;2023-04-02T01:41:24;100352.91;;;4.41;99.20
4576;BME280;2300;51.874;8.430;2023-04-02T01:43:59;100356.44;;;4.35;99.42
4576;BME280;2300;51.874;8.430;2023-04-02T01:46:29;100372.41;;;4.52;99.33
4576;BME280;2300;51.874;8.430;2023-04-02T01:48:59;100377.28;;;4.63;99.33
4576;BME280;2300;51.874;8.430;2023-04-02T01:51:29;100373.97;;;4.61;98.35
4576;BME280;2300;51.874;8.430;2023-04-02T01:53:58;100387.81;;;4.38;97.85
4576;BME280;2300;51.874;8.430;2023-04-02T01:56:25;100387.97;;;4.30;98.03
4576;BME280;2300;51.874;8.430;2023-04-02T01:58:52;100397.25;;;4.14;97.39
4576;BME280;2300;51.874;8.430;2023-04-02T02:01:22;100399.75;;;4.16;98.36
4576;BME280;2300;51.874;8.430;2023-04-02T02:03:51;100401.00;;;4.13;98.77
4576;BME280;2300;51.874;8.430;2023-04-02T02:06:18;100410.84;;;4.14;98.46
4576;BME280;2300;51.874;8.430;2023-04-02T02:08:47;100413.75;;;4.13;98.49
4576;BME280;2300;51.874;8.430;2023-04-02T02:11:17;100420.09;;;4.20;98.23
4576;BME280;2300;51.874;8.430;2023-04-02T02:13:46;100413.69;;;4.06;97.90
4576;BME280;2300;51.874;8.430;2023-04-02T02:16:15;100433.63;;;4.13;98.34
4576;BME280;2300;51.874;8.430;2023-04-02T02:18:45;100435.34;;;4.21;98.09
4576;BME280;2300;51.874;8.430;2023-04-02T02:21:22;100434.41;;;4.07;98.05
4576;BME280;2300;51.874;8.430;2023-04-02T02:23:53;100449.66;;;4.29;98.44
4576;BME280;2300;51.874;8.430;2023-04-02T02:26:22;100455.44;;;4.20;96.96
4576;BME280;2300;51.874;8.430;2023-04-02T02:28:52;100457.34;;;4.04;97.12
4576;BME280;2300;51.874;8.430;2023-04-02T02:31:23;100461.56;;;4.07;97.70
4576;BME280;2300;51.874;8.430;2023-04-02T02:33:57;100453.44;;;3.86;97.61
4576;BME280;2300;51.874;8.430;2023-04-02T02:36:30;100472.44;;;3.86;97.71
4576;BME280;2300;51.874;8.430;2023-04-02T02:39:02;100474.16;;;3.87;96.78
4576;BME280;2300;51.874;8.430;2023-04-02T02:41:34;100483.50;;;3.84;97.13
4576;BME280;2300;51.874;8.430;2023-04-02T02:44:05;100481.38;;;3.80;97.36
4576;BME280;2300;51.874;8.430;2023-04-02T02:46:38;100488.50;;;3.81;97.63
4576;BME280;2300;51.874;8.430;2023-04-02T02:49:09;100483.47;;;3.78;98.09
4576;BME280;2300;51.874;8.430;2023-04-02T02:51:43;100492.38;;;3.72;97.02
4576;BME280;2300;51.874;8.430;2023-04-02T02:54:11;100494.66;;;3.53;97.09
4576;BME280;2300;51.874;8.430;2023-04-02T02:56:44;100496.00;;;3.57;97.24
4576;BME280;2300;51.874;8.430;2023-04-02T02:59:13;100503.94;;;3.59;97.51
4576;BME280;2300;51.874;8.430;2023-04-02T03:01:42;100517.06;;;3.55;97.29
4576;BME280;2300;51.874;8.430;2023-04-02T03:04:10;100513.94;;;3.58;96.99
4576;BME280;2300;51.874;8.430;2023-04-02T03:06:37;100510.81;;;3.40;96.63
4576;BME280;2300;51.874;8.430;2023-04-02T03:09:12;100514.16;;;3.42;97.32
4576;BME280;2300;51.874;8.430;2023-04-02T03:11:45;100518.28;;;3.38;96.56
4576;BME280;2300;51.874;8.430;2023-04-02T03:14:21;100526.06;;;3.41;96.60
4576;BME280;2300;51.874;8.430;2023-04-02T03:16:51;100543.97;;;3.36;96.25
4576;BME280;2300;51.874;8.430;2023-04-02T03:19:28;100540.13;;;3.30;96.62
4576;BME280;2300;51.874;8.430;2023-04-02T03:22:00;100552.28;;;3.34;95.91
4576;BME280;2300;51.874;8.430;2023-04-02T03:24:33;100551.91;;;3.37;96.50
4576;BME280;2300;51.874;8.430;2023-04-02T03:27:04;100561.69;;;3.53;95.76
4576;BME280;2300;51.874;8.430;2023-04-02T03:29:34;100562.22;;;3.42;95.86
4576;BME280;2300;51.874;8.430;2023-04-02T03:32:04;100578.03;;;3.38;95.39
4576;BME280;2300;51.874;8.430;2023-04-02T03:34:37;100578.69;;;3.40;96.90
4576;BME280;2300;51.874;8.430;2023-04-02T03:37:10;100590.97;;;3.36;96.18
4576;BME280;2300;51.874;8.430;2023-04-02T03:39:42;100594.41;;;3.30;95.47
4576;BME280;2300;51.874;8.430;2023-04-02T03:42:14;100600.97;;;3.21;94.81
4576;BME280;2300;51.874;8.430;2023-04-02T03:44:45;100611.06;;;3.27;95.13
4576;BME280;2300;51.874;8.430;2023-04-02T03:47:17;100605.84;;;3.11;94.76
4576;BME280;2300;51.874;8.430;2023-04-02T03:49:51;100608.91;;;3.08;94.33
4576;BME280;2300;51.874;8.430;2023-04-02T03:52:23;100616.31;;;3.14;94.45
4576;BME280;2300;51.874;8.430;2023-04-02T03:54:50;100612.56;;;3.00;93.55
4576;BME280;2300;51.874;8.430;2023-04-02T03:57:23;100629.50;;;3.17;94.06
4576;BME280;2300;51.874;8.430;2023-04-02T03:59:55;100639.72;;;3.15;94.20
4576;BME280;2300;51.874;8.430;2023-04-02T04:02:33;100631.56;;;3.15;94.27
4576;BME280;2300;51.874;8.430;2023-04-02T04:05:02;100648.50;;;3.17;94.16
4576;BME280;2300;51.874;8.430;2023-04-02T04:07:32;100656.34;;;3.12;93.76
4576;BME280;2300;51.874;8.430;2023-04-02T04:10:01;100622.84;;;3.05;93.79
4576;BME280;2300;51.874;8.430;2023-04-02T04:12:30;100664.88;;;3.24;93.50
4576;BME280;2300;51.874;8.430;2023-04-02T04:15:02;100661.59;;;3.28;93.54
4576;BME280;2300;51.874;8.430;2023-04-02T04:17:35;100674.25;;;3.21;93.44
4576;BME280;2300;51.874;8.430;2023-04-02T04:20:19;100676.41;;;3.11;92.73
4576;BME280;2300;51.874;8.430;2023-04-02T04:22:47;100681.88;;;3.03;91.81
4576;BME280;2300;51.874;8.430;2023-04-02T04:25:23;100691.25;;;3.00;92.14
4576;BME280;2300;51.874;8.430;2023-04-02T04:28:00;100691.72;;;3.04;91.15
4576;BME280;2300;51.874;8.430;2023-04-02T04:30:36;100706.41;;;3.09;91.73
4576;BME280;2300;51.874;8.430;2023-04-02T04:33:12;100709.69;;;3.05;92.14
4576;BME280;2300;51.874;8.430;2023-04-02T04:35:46;100705.63;;;3.01;90.84
4576;BME280;2300;51.874;8.430;2023-04-02T04:38:16;100713.28;;;2.97;91.22
4576;BME280;2300;51.874;8.430;2023-04-02T04:40:48;100716.19;;;2.96;90.95
4576;BME280;2300;51.874;8.430;2023-04-02T04:43:24;100725.00;;;2.98;90.97
4576;BME280;2300;51.874;8.430;2023-04-02T04:45:57;100728.56;;;2.98;90.75
4576;BME280;2300;51.874;8.430;2023-04-02T04:48:28;100723.59;;;3.02;91.32
4576;BME280;2300;51.874;8.430;2023-04-02T04:51:01;100750.09;;;3.00;91.33
4576;BME280;2300;51.874;8.430;2023-04-02T04:53:30;100756.03;;;3.18;91.48
4576;BME280;2300;51.874;8.430;2023-04-02T04:55:58;100763.09;;;3.04;90.66
4576;BME280;2300;51.874;8.430;2023-04-02T04:58:31;100771.13;;;2.98;90.07
4576;BME280;2300;51.874;8.430;2023-04-02T05:01:03;100788.13;;;2.92;90.43
4576;BME280;2300;51.874;8.430;2023-04-02T05:03:35;100787.16;;;2.85;89.76
4576;BME280;2300;51.874;8.430;2023-04-02T05:06:09;100785.75;;;2.66;90.64
4576;BME280;2300;51.874;8.430;2023-04-02T05:08:40;100798.19;;;2.83;90.53
4576;BME280;2300;51.874;8.430;2023-04-02T05:11:12;100802.31;;;2.71;90.38
4576;BME280;2300;51.874;8.430;2023-04-02T05:13:43;100802.84;;;2.66;89.84
4576;BME280;2300;51.874;8.430;2023-04-02T05:16:16;100812.31;;;2.70;89.23
4576;BME280;2300;51.874;8.430;2023-04-02T05:18:51;100819.59;;;2.70;89.69
4576;BME280;2300;51.874;8.430;2023-04-02T05:21:23;100829.94;;;2.74;89.73
4576;BME280;2300;51.874;8.430;2023-04-02T05:23:53;100824.38;;;2.68;89.64
4576;BME280;2300;51.874;8.430;2023-04-02T05:26:24;100838.34;;;2.88;89.99
4576;BME280;2300;51.874;8.430;2023-04-02T05:28:55;100833.63;;;2.82;89.96
4576;BME280;2300;51.874;8.430;2023-04-02T05:31:24;100837.34;;;2.81;90.75
4576;BME280;2300;51.874;8.430;2023-04-02T05:33:53;100850.50;;;2.69;89.68
4576;BME280;2300;51.874;8.430;2023-04-02T05:36:24;100849.91;;;2.82;90.02
4576;BME280;2300;51.874;8.430;2023-04-02T05:38:54;100860.28;;;2.70;89.56
4576;BME280;2300;51.874;8.430;2023-04-02T05:41:24;100863.16;;;2.76;89.26
4576;BME280;2300;51.874;8.430;2023-04-02T05:43:58;100851.72;;;2.58;89.56
4576;BME280;2300;51.874;8.430;2023-04-02T05:46:32;100873.72;;;2.63;88.56
4576;BME280;2300;51.874;8.430;2023-04-02T05:49:00;100872.28;;;2.45;89.02
4576;BME280;2300;51.874;8.430;2023-04-02T05:51:37;100872.53;;;2.66;89.62
4576;BME280;2300;51.874;8.430;2023-04-02T05:54:06;100885.75;;;2.69;89.68
4576;BME280;2300;51.874;8.430;2023-04-02T05:56:42;100884.84;;;2.76;88.98
4576;BME280;2300;51.874;8.430;2023-04-02T05:59:15;100896.91;;;2.74;88.66
4576;BME280;2300;51.874;8.430;2023-04-02T06:01:46;100894.91;;;2.68;88.51
4576;BME280;2300;51.874;8.430;2023-04-02T06:04:18;100893.91;;;2.61;88.15
4576;BME280;2300;51.874;8.430;2023-04-02T06:06:57;100910.63;;;2.72;87.60
4576;BME280;2300;51.874;8.430;2023-04-02T06:09:30;100908.28;;;2.69;87.70
4576;BME280;2300;51.874;8.430;2023-04-02T06:12:11;100925.69;;;2.75;88.38
4576;BME280;2300;51.874;8.430;2023-04-02T06:14:39;100930.31;;;2.74;87.24
4576;BME280;2300;51.874;8.430;2023-04-02T06:17:06;100944.06;;;2.96;86.70
4576;BME280;2300;51.874;8.430;2023-04-02T06:19:36;100940.03;;;2.92;87.10
4576;BME280;2300;51.874;8.430;2023-04-02T06:22:13;100940.31;;;2.74;86.30
4576;BME280;2300;51.874;8.430;2023-04-02T06:24:44;100958.19;;;2.91;86.30
4576;BME280;2300;51.874;8.430;2023-04-02T06:27:14;100971.88;;;2.98;86.34
4576;BME280;2300;51.874;8.430;2023-04-02T06:29:44;100974.13;;;2.94;86.26
4576;BME280;2300;51.874;8.430;2023-04-02T06:32:18;100974.47;;;2.91;85.93
4576;BME280;2300;51.874;8.430;2023-04-02T06:34:46;100988.84;;;3.00;86.58
4576;BME280;2300;51.874;8.430;2023-04-02T06:37:20;100984.28;;;3.00;85.32
4576;BME280;2300;51.874;8.430;2023-04-02T06:39:48;100984.28;;;3.00;85.23
4576;BME280;2300;51.874;8.430;2023-04-02T06:42:17;101001.03;;;3.04;84.78
4576;BME280;2300;51.874;8.430;2023-04-02T06:44:44;101002.69;;;3.13;84.73
4576;BME280;2300;51.874;8.430;2023-04-02T06:47:18;101006.41;;;3.20;84.92
4576;BME280;2300;51.874;8.430;2023-04-02T06:49:50;101010.50;;;3.16;84.42
4576;BME280;2300;51.874;8.430;2023-04-02T06:52:22;101017.66;;;3.01;83.14
4576;BME280;2300;51.874;8.430;2023-04-02T06:54:51;101011.38;;;3.08;83.86
4576;BME280;2300;51.874;8.430;2023-04-02T06:57:17;101028.56;;;3.32;83.40
4576;BME280;2300;51.874;8.430;2023-04-02T06:59:44;101032.63;;;3.36;82.96
4576;BME280;2300;51.874;8.430;2023-04-02T07:02:20;101034.50;;;3.27;83.53
4576;BME280;2300;51.874;8.430;2023-04-02T07:04:50;101043.03;;;3.24;83.52
4576;BME280;2300;51.874;8.430;2023-04-02T07:07:16;101048.06;;;3.35;82.55
4576;BME280;2300;51.874;8.430;2023-04-02T07:09:44;101062.28;;;3.37;82.39
4576;BME280;2300;51.874;8.430;2023-04-02T07:12:11;101055.03;;;3.30;81.81
4576;BME280;2300;51.874;8.430;2023-04-02T07:14:38;101053.59;;;3.11;81.12
4576;BME280;2300;51.874;8.430;2023-04-02T07:17:05;101074.38;;;3.35;82.32
4576;BME280;2300;51.874;8.430;2023-04-02T07:19:31;101084.66;;;3.47;81.40
4576;BME280;2300;51.874;8.430;2023-04-02T07:21:57;101090.00;;;3.25;81.30
4576;BME280;2300;51.874;8.430;2023-04-02T07:24:24;101087.13;;;3.26;80.94
4576;BME280;2300;51.874;8.430;2023-04-02T07:26:52;101089.97;;;3.33;81.42
4576;BME280;2300;51.874;8.430;2023-04-02T07:29:18;101100.06;;;3.55;80.57
4576;BME280;2300;51.874;8.430;2023-04-02T07:31:45;101106.19;;;3.57;80.65
4576;BME280;2300;51.874;8.430;2023-04-02T07:34:11;101105.59;;;3.70;80.61
4576;BME280;2300;51.874;8.430;2023-04-02T07:36:38;101112.88;;;3.69;80.53
4576;BME280;2300;51.874;8.430;2023-04-02T07:39:04;101111.03;;;3.70;80.09
4576;BME280;2300;51.874;8.430;2023-04-02T07:41:31;101120.09;;;3.85;79.13
4576;BME280;2300;51.874;8.430;2023-04-02T07:43:59;101131.03;;;4.07;79.18
4576;BME280;2300;51.874;8.430;2023-04-02T07:46:25;101137.38;;;4.23;79.54
4576;BME280;2300;51.874;8.430;2023-04-02T07:48:52;101148.69;;;4.34;78.64
4576;BME280;2300;51.874;8.430;2023-04-02T07:51:19;101140.94;;;4.46;77.27
4576;BME280;2300;51.874;8.430;2023-04-02T07:53:46;101150.50;;;4.65;77.10
4576;BME280;2300;51.874;8.430;2023-04-02T07:56:16;101163.81;;;4.60;76.54
4576;BME280;2300;51.874;8.430;2023-04-02T07:58:44;101168.63;;;4.72;76.73
4576;BME280;2300;51.874;8.430;2023-04-02T08:01:18;101164.09;;;4.42;76.62
4576;BME280;2300;51.874;8.430;2023-04-02T08:03:45;101166.22;;;4.01;76.66
4576;BME280;2300;51.874;8.430;2023-04-02T08:06:11;101168.38;;;4.14;77.30
4576;BME280;2300;51.874;8.430;2023-04-02T08:08:38;101175.00;;;4.11;76.81
4576;BME280;2300;51.874;8.430;2023-04-02T08:11:05;101180.09;;;4.14;76.63
4576;BME280;2300;51.874;8.430;2023-04-02T08:13:31;101181.41;;;4.18;76.84
4576;BME280;2300;51.874;8.430;2023-04-02T08:15:58;101196.78;;;4.34;76.37
4576;BME280;2300;51.874;8.430;2023-04-02T08:18:27;101193.25;;;4.25;75.09
4576;BME280;2300;51.874;8.430;2023-04-02T08:20:53;101203.56;;;4.38;76.11
4576;BME280;2300;51.874;8.430;2023-04-02T08:23:20;101208.31;;;4.05;75.26
4576;BME280;2300;51.874;8.430;2023-04-02T08:25:47;101209.88;;;3.99;75.68
4576;BME280;2300;51.874;8.430;2023-04-02T08:28:14;101222.03;;;4.20;75.16
4576;BME280;2300;51.874;8.430;2023-04-02T08:30:41;101224.91;;;4.18;75.49
4576;BME280;2300;51.874;8.430;2023-04-02T08:33:07;101237.13;;;4.22;75.96
4576;BME280;2300;51.874;8.430;2023-04-02T08:35:36;101249.28;;;4.03;74.96
4576;BME280;2300;51.874;8.430;2023-04-02T08:38:03;101237.56;;;4.03;76.29
4576;BME280;2300;51.874;8.430;2023-04-02T08:40:33;101245.97;;;4.16;76.01
4576;BME280;2300;51.874;8.430;2023-04-02T08:43:11;101248.56;;;4.10;74.14
4576;BME280;2300;51.874;8.430;2023-04-02T08:45:47;101261.63;;;4.14;74.20
4576;BME280;2300;51.874;8.430;2023-04-02T08:48:19;101257.00;;;4.23;74.39
4576;BME280;2300;51.874;8.430;2023-04-02T08:50:47;101263.59;;;4.28;73.76
4576;BME280;2300;51.874;8.430;2023-04-02T08:53:16;101282.75;;;4.04;73.35
4576;BME280;2300;51.874;8.430;2023-04-02T08:55:47;101279.41;;;3.86;73.81
4576;BME280;2300;51.874;8.430;2023-04-02T08:58:27;101279.56;;;3.84;74.14
4576;BME280;2300;51.874;8.430;2023-04-02T09:01:00;101274.31;;;3.83;74.44
4576;BME280;2300;51.874;8.430;2023-04-02T09:03:33;101284.72;;;4.18;74.96
4576;BME280;2300;51.874;8.430;2023-04-02T09:06:02;101288.59;;;4.24;74.76
4576;BME280;2300;51.874;8.430;2023-04-02T09:08:31;101299.44;;;4.40;74.95
4576;BME280;2300;51.874;8.430;2023-04-02T09:11:03;101292.31;;;4.62;73.46
4576;BME280;2300;51.874;8.430;2023-04-02T09:13:33;101296.00;;;4.77;72.75
4576;BME280;2300;51.874;8.430;2023-04-02T09:16:06;101310.56;;;4.84;72.67
4576;BME280;2300;51.874;8.430;2023-04-02T09:18:33;101283.50;;;4.60;72.66
4576;BME280;2300;51.874;8.430;2023-04-02T09:21:15;101312.34;;;4.69;72.55
4576;BME280;2300;51.874;8.430;2023-04-02T09:23:43;101318.72;;;4.84;73.05
4576;BME280;2300;51.874;8.430;2023-04-02T09:26:19;101311.84;;;4.96;72.25
4576;BME280;2300;51.874;8.430;2023-04-02T09:28:47;101309.19;;;5.11;71.32
4576;BME280;2300;51.874;8.430;2023-04-02T09:31:18;101334.97;;;5.23;71.13
4576;BME280;2300;51.874;8.430;2023-04-02T09:33:49;101333.25;;;5.22;71.79
4576;BME280;2300;51.874;8.430;2023-04-02T09:36:27;101336.88;;;5.14;70.35
4576;BME280;2300;51.874;8.430;2023-04-02T09:39:00;101342.00;;;5.17;70.62
4576;BME280;2300;51.874;8.430;2023-04-02T09:41:31;101343.91;;;5.31;70.97
4576;BME280;2300;51.874;8.430;2023-04-02T09:44:17;101354.75;;;5.92;70.83
4576;BME280;2300;51.874;8.430;2023-04-02T09:46:51;101348.84;;;6.17;69.26
4576;BME280;2300;51.874;8.430;2023-04-02T09:49:20;101357.81;;;6.11;68.58
4576;BME280;2300;51.874;8.430;2023-04-02T09:52:06;101363.06;;;6.42;68.18
4576;BME280;2300;51.874;8.430;2023-04-02T09:54:34;101348.94;;;7.04;69.63
4576;BME280;2300;51.874;8.430;2023-04-02T09:57:16;101363.75;;;7.37;66.78
4576;BME280;2300;51.874;8.430;2023-04-02T09:59:45;101369.81;;;7.33;65.35
4576;BME280;2300;51.874;8.430;2023-04-02T10:02:23;101374.00;;;7.29;64.48
4576;BME280;2300;51.874;8.430;2023-04-02T10:04:50;101386.81;;;7.50;64.79
4576;BME280;2300;51.874;8.430;2023-04-02T10:07:31;101383.31;;;6.98;65.85
4576;BME280;2300;51.874;8.430;2023-04-02T10:10:01;101380.16;;;7.16;64.35
4576;BME280;2300;51.874;8.430;2023-04-02T10:12:29;101377.94;;;7.69;65.74
4576;BME280;2300;51.874;8.430;2023-04-02T10:15:02;101395.97;;;7.42;64.10
4576;BME280;2300;51.874;8.430;2023-04-02T10:17:31;101394.03;;;7.36;65.83
4576;BME280;2300;51.874;8.430;2023-04-02T10:20:04;101411.47;;;7.35;65.06
4576;BME280;2300;51.874;8.430;2023-04-02T10:22:37;101401.63;;;7.19;64.97
4576;BME280;2300;51.874;8.430;2023-04-02T10:25:12;101394.59;;;7.74;64.78
4576;BME280;2300;51.874;8.430;2023-04-02T10:27:44;101391.16;;;7.23;61.90
4576;BME280;2300;51.874;8.430;2023-04-02T10:30:18;101402.16;;;6.64;63.85
4576;BME280;2300;51.874;8.430;2023-04-02T10:32:50;101421.47;;;6.33;65.00
4576;BME280;2300;51.874;8.430;2023-04-02T10:35:31;101414.69;;;5.77;65.25
4576;BME280;2300;51.874;8.430;2023-04-02T10:38:23;101428.31;;;6.14;65.84
4576;BME280;2300;51.874;8.430;2023-04-02T10:40:57;101425.50;;;6.23;67.05
4576;BME280;2300;51.874;8.430;2023-04-02T10:43:41;101432.53;;;6.02;66.11
4576;BME280;2300;51.874;8.430;2023-04-02T10:46:14;101441.00;;;6.22;66.52
4576;BME280;2300;51.874;8.430;2023-04-02T10:48:50;101445.66;;;6.51;66.49
4576;BME280;2300;51.874;8.430;2023-04-02T10:51:27;101449.53;;;6.42;65.12
4576;BME280;2300;51.874;8.430;2023-04-02T10:54:00;101450.03;;;6.23;65.44
4576;BME280;2300;51.874;8.430;2023-04-02T10:56:28;101427.22;;;5.86;65.54
4576;BME280;2300;51.874;8.430;2023-04-02T10:58:58;101456.59;;;5.99;65.97
4576;BME280;2300;51.874;8.430;2023-04-02T11:01:29;101452.47;;;6.03;66.64
4576;BME280;2300;51.874;8.430;2023-04-02T11:03:59;101449.84;;;6.09;66.34
4576;BME280;2300;51.874;8.430;2023-04-02T11:06:31;101467.66;;;6.49;66.79
4576;BME280;2300;51.874;8.430;2023-04-02T11:09:06;101465.78;;;6.79;65.27
4576;BME280;2300;51.874;8.430;2023-04-02T11:11:41;101472.13;;;7.45;66.00
4576;BME280;2300;51.874;8.430;2023-04-02T11:14:11;101478.13;;;7.76;63.77
4576;BME280;2300;51.874;8.430;2023-04-02T11:16:40;101460.06;;;7.39;64.34
4576;BME280;2300;51.874;8.430;2023-04-02T11:19:19;101475.47;;;7.62;63.85
4576;BME280;2300;51.874;8.430;2023-04-02T11:21:47;101478.94;;;7.98;64.94
4576;BME280;2300;51.874;8.430;2023-04-02T11:24:36;101487.81;;;7.58;62.07
4576;BME280;2300;51.874;8.430;2023-04-02T11:27:16;101480.59;;;7.50;62.75
4576;BME280;2300;51.874;8.430;2023-04-02T11:29:44;101483.66;;;7.26;64.43
4576;BME280;2300;51.874;8.430;2023-04-02T11:32:28;101494.91;;;7.01;63.50
4576;BME280;2300;51.874;8.430;2023-04-02T11:35:00;101495.47;;;6.97;63.30
4576;BME280;2300;51.874;8.430;2023-04-02T11:37:35;101501.59;;;6.84;64.94
4576;BME280;2300;51.874;8.430;2023-04-02T11:40:45;101508.19;;;7.05;63.52
4576;BME280;2300;51.874;8.430;2023-04-02T11:43:49;101501.41;;;7.00;63.47
4576;BME280;2300;51.874;8.430;2023-04-02T11:46:34;101487.75;;;6.86;63.67
4576;BME280;2300;51.874;8.430;2023-04-02T11:49:31;101504.72;;;6.81;63.78
4576;BME280;2300;51.874;8.430;2023-04-02T11:51:58;101507.16;;;6.91;64.79
4576;BME280;2300;51.874;8.430;2023-04-02T11:54:28;101509.94;;;7.27;65.02
4576;BME280;2300;51.874;8.430;2023-04-02T11:56:59;101509.66;;;7.22;64.64
4576;BME280;2300;51.874;8.430;2023-04-02T11:59:36;101526.53;;;7.25;63.21
4576;BME280;2300;51.874;8.430;2023-04-02T12:02:12;101524.44;;;7.27;62.85
4576;BME280;2300;51.874;8.430;2023-04-02T12:04:59;101526.16;;;7.14;62.53
4576;BME280;2300;51.874;8.430;2023-04-02T12:08:01;101532.81;;;7.26;62.72
4576;BME280;2300;51.874;8.430;2023-04-02T12:10:33;101530.94;;;7.41;62.76
4576;BME280;2300;51.874;8.430;2023-04-02T12:13:18;101527.09;;;7.71;63.07
4576;BME280;2300;51.874;8.430;2023-04-02T12:15:45;101538.53;;;7.60;63.40
4576;BME280;2300;51.874;8.430;2023-04-02T12:18:15;101544.41;;;8.21;63.97
4576;BME280;2300;51.874;8.430;2023-04-02T12:20:48;101546.53;;;8.04;61.68
4576;BME280;2300;51.874;8.430;2023-04-02T12:23:18;101536.44;;;7.83;60.83
4576;BME280;2300;51.874;8.430;2023-04-02T12:25:53;101545.06;;;7.80;63.52
4576;BME280;2300;51.874;8.430;2023-04-02T12:28:22;101557.19;;;7.57;62.24
4576;BME280;2300;51.874;8.430;2023-04-02T12:30:49;101559.63;;;7.52;63.58
4576;BME280;2300;51.874;8.430;2023-04-02T12:33:26;101552.63;;;7.28;62.63
4576;BME280;2300;51.874;8.430;2023-04-02T12:35:56;101547.56;;;7.61;62.19
4576;BME280;2300;51.874;8.430;2023-04-02T12:38:24;101567.47;;;8.33;63.14
4576;BME280;2300;51.874;8.430;2023-04-02T12:40:52;101571.91;;;8.34;60.58
4576;BME280;2300;51.874;8.430;2023-04-02T12:43:24;101569.97;;;9.11;63.36
4576;BME280;2300;51.874;8.430;2023-04-02T12:45:52;101580.88;;;9.39;59.55
4576;BME280;2300;51.874;8.430;2023-04-02T12:48:19;101582.41;;;9.14;61.02
4576;BME280;2300;51.874;8.430;2023-04-02T12:50:46;101581.25;;;8.95;59.85
4576;BME280;2300;51.874;8.430;2023-04-02T12:53:21;101589.75;;;9.07;60.07
4576;BME280;2300;51.874;8.430;2023-04-02T12:55:50;101597.22;;;9.61;59.66
4576;BME280;2300;51.874;8.430;2023-04-02T12:58:25;101589.19;;;8.84;59.22
4576;BME280;2300;51.874;8.430;2023-04-02T13:01:09;101583.47;;;8.57;60.06
4576;BME280;2300;51.874;8.430;2023-04-02T13:03:35;101582.47;;;8.86;60.33
4576;BME280;2300;51.874;8.430;2023-04-02T13:06:02;101562.09;;;8.46;59.50
4576;BME280;2300;51.874;8.430;2023-04-02T13:08:37;101586.38;;;8.56;61.75
4576;BME280;2300;51.874;8.430;2023-04-02T13:11:05;101516.97;;;7.93;61.02
4576;BME280;2300;51.874;8.430;2023-04-02T13:13:35;101599.44;;;8.54;60.08
4576;BME280;2300;51.874;8.430;2023-04-02T13:16:26;101599.53;;;8.39;60.23
4576;BME280;2300;51.874;8.430;2023-04-02T13:21:53;101586.69;;;7.97;60.08
4576;BME280;2300;51.874;8.430;2023-04-02T13:24:21;101587.38;;;8.48;61.01
4576;BME280;2300;51.874;8.430;2023-04-02T13:26:48;101596.72;;;8.82;60.53
4576;BME280;2300;51.874;8.430;2023-04-02T13:29:27;101590.41;;;8.32;60.35
4576;BME280;2300;51.874;8.430;2023-04-02T13:31:56;101590.47;;;8.39;60.60
4576;BME280;2300;51.874;8.430;2023-04-02T13:34:23;101589.34;;;8.12;60.07
4576;BME280;2300;51.874;8.430;2023-04-02T13:36:49;101567.81;;;7.66;60.30
4576;BME280;2300;51.874;8.430;2023-04-02T13:39:16;101593.28;;;7.88;60.70
4576;BME280;2300;51.874;8.430;2023-04-02T13:41:45;101577.47;;;7.83;59.44
4576;BME280;2300;51.874;8.430;2023-04-02T13:44:20;101597.81;;;7.96;60.12
4576;BME280;2300;51.874;8.430;2023-04-02T13:46:49;101578.75;;;8.02;60.94
4576;BME280;2300;51.874;8.430;2023-04-02T13:49:16;101601.50;;;7.88;60.40
4576;BME280;2300;51.874;8.430;2023-04-02T13:51:44;101609.66;;;7.81;60.85